Wednesday, November 22, 2017, 7:58 AM EST
Back to Local

KLOM, Philadelphia, Wings Field Airport

Location: Blue Bell, PA, United States Lat: 40.138
Local Time: 7:58 AM EST (12:58 GMT) Lon: -75.265
Time Zone: US/Eastern Elev: 301 ft

Show me the last for .
Show Coded

Time T Td Feel RH Dir Speed Gust Alt SLP Vis Weather Sky Remarks
2017-11-22 07:35 46 46 - 100 - Calm - 29.92 - 1 SCT044 BKN060 OVC070 None
2017-11-22 07:15 46 46 - 100 - Calm - 29.92 - 4 SCT038 SCT048 OVC070 None
2017-11-22 06:55 46 46 - 100 - Calm - 29.93 - 5 SCT055 OVC070 None
2017-11-22 06:35 48 46 - 93 - Calm - 29.92 - 10 BKN055 OVC070 None
2017-11-22 06:15 46 46 - 100 - Calm - 29.92 - 10 SCT037 BKN050 OVC080 None
2017-11-22 05:55 46 45 - 93 - Calm - 29.91 - 10 BKN033 OVC041 None
2017-11-22 05:35 46 45 - 93 - Calm - 29.91 - 10 OVC033 None
2017-11-22 05:15 46 45 - 93 - Calm - 29.91 - 10 SCT025 BKN033 None
2017-11-22 04:55 50 46 - 87 - Calm - 29.92 - 10 BKN025 None
2017-11-22 04:35 48 45 - 87 - Calm - 29.92 - 10 SCT037 SCT120 None
2017-11-22 04:10 50 45 - 81 - Calm - 29.93 - 10 SCT037 SCT120 None
2017-11-22 03:55 50 45 - 81 - Calm - 29.93 - 10 SCT110 None
2017-11-22 03:35 50 45 48 81 200° 5 - 29.94 - 10 CLR None
2017-11-22 03:15 50 45 47 81 200° 7 - 29.95 - 10 CLR None
2017-11-22 02:55 50 45 48 81 210° 6 - 29.95 - 10 SCT085 None
2017-11-22 02:35 50 45 47 81 200° 8 - 29.97 - 10 CLR None
2017-11-22 02:15 50 45 48 81 180° 6 - 29.97 - 10 CLR None
2017-11-22 02:00 50 45 47 81 190° 7 - 29.97 - 10 CLR None
2017-11-22 01:35 48 43 45 81 190° 7 - 29.98 - 10 CLR None
2017-11-22 01:15 48 43 46 81 200° 6 - 29.99 - 10 CLR None
2017-11-22 00:55 48 43 45 81 180° 7 - 30.00 - 10 CLR None
2017-11-22 00:35 50 43 48 76 190° 6 - 30.00 - 10 CLR None
2017-11-22 00:15 50 43 47 76 180° 7 - 30.00 - 10 CLR None
2017-11-21 23:55 50 43 47 76 190° 8 - 30.01 - 10 CLR None
2017-11-21 23:35 50 41 47 71 210° 8 - 30.02 - 10 CLR None
2017-11-21 23:15 50 41 46 71 210° 10 - 30.02 - 10 CLR None
2017-11-21 22:55 50 41 46 71 210° 9 - 30.03 - 10 CLR None
2017-11-21 22:35 50 41 47 71 220° 7 - 30.03 - 10 CLR None
2017-11-21 22:15 50 39 47 66 220° 7 - 30.04 - 10 CLR None
2017-11-21 21:55 50 39 46 66 220° 9 - 30.04 - 10 CLR None
2017-11-21 21:35 50 39 47 66 210° 8 - 30.05 - 10 CLR None
2017-11-21 21:15 50 39 44 66 200° 13 18 30.05 - 10 CLR None
2017-11-21 20:55 50 41 46 71 190° 10 - 30.05 - 10 CLR None
2017-11-21 20:35 50 41 44 71 200° 13 17 30.04 - 10 CLR None
2017-11-21 20:15 50 41 46 71 200° 9 - 30.04 - 10 CLR None
2017-11-21 19:55 50 41 47 71 200° 8 - 30.04 - 10 CLR None
2017-11-21 19:35 50 39 47 66 200° 8 - 30.04 - 10 CLR None
2017-11-21 19:15 48 37 46 66 200° 6 - 30.05 - 10 CLR None
2017-11-21 18:55 48 37 46 66 200° 6 - 30.05 - 10 CLR None
2017-11-21 18:35 48 37 46 66 200° 5 - 30.05 - 10 CLR None
2017-11-21 18:10 50 36 48 57 200° 6 - 30.04 - 10 CLR None
2017-11-21 17:55 50 36 48 57 200° 6 - 30.04 - 10 CLR None
2017-11-21 17:35 50 36 47 57 200° 7 - 30.03 - 10 CLR None
2017-11-21 17:15 50 36 47 57 210° 8 - 30.03 - 10 CLR None
2017-11-21 16:55 50 34 48 53 190° 6 - 30.02 - 10 CLR None
2017-11-21 16:35 50 34 49 53 210° 3 - 30.03 - 10 CLR None
2017-11-21 16:15 52 32 - 46 200° 6 - 30.03 - 10 CLR None
2017-11-21 15:55 52 32 - 46 210° 3 - 30.03 - 10 CLR None
2017-11-21 15:35 52 32 - 46 200° 3 - 30.03 - 10 CLR None
2017-11-21 15:15 52 32 - 46 210° 6 - 30.03 - 10 CLR None
2017-11-21 14:55 54 32 - 43 210° 5 - 30.04 - 10 CLR None
2017-11-21 14:35 54 32 - 43 220° 13 20 30.04 - 10 CLR None
2017-11-21 14:15 54 30 - 40 210° 9 20 30.04 - 10 CLR None
2017-11-21 13:55 54 30 - 40 200° 10 16 30.04 - 10 CLR None
2017-11-21 13:35 54 32 - 43 200° 8 - 30.04 - 10 CLR None
2017-11-21 13:15 54 32 - 43 180° 14 18 30.05 - 10 CLR None
2017-11-21 12:55 55 32 - 40 200° 13 - 30.07 - 10 CLR None
2017-11-21 12:35 55 32 - 40 210° 7 - 30.07 - 10 CLR None
2017-11-21 12:15 54 32 - 43 200° 10 - 30.09 - 10 CLR None
2017-11-21 11:55 54 32 - 43 200° 12 - 30.10 - 10 CLR None
2017-11-21 11:35 54 32 - 43 220° 7 10 30.10 - 10 CLR None
2017-11-21 11:15 52 32 - 46 220° 12 16 30.11 - 10 CLR None
2017-11-21 10:55 52 32 - 46 210° 9 - 30.12 - 10 CLR None
2017-11-21 10:30 50 32 44 49 220° 13 20 30.13 - 10 CLR None
2017-11-21 10:15 50 32 44 49 230° 14 20 30.13 - 10 CLR None
2017-11-21 09:55 50 32 47 49 240° 7 - 30.13 - 10 CLR None
2017-11-21 09:35 46 32 42 56 220° 9 - 30.13 - 10 CLR None
2017-11-21 09:15 45 32 40 61 220° 9 - 30.13 - 10 CLR None
2017-11-21 08:55 43 34 39 70 210° 7 - 30.13 - 10 CLR None
2017-11-21 08:35 41 32 37 70 210° 6 - 30.13 - 10 CLR None
2017-11-21 08:15 39 32 37 75 190° 3 - 30.13 - 10 CLR None

Support USWX by starting your Amazon purchase here.